Aviation Digital Data Service (ADDS)

Output produced by METARs form (2136 UTC 20 October 2018)
found at http://www.aviationweather.gov/metar/data/
 
METAR text: KSAR 202115Z AUTO 32014G22KT 10SM CLR 18/01 A3010 RMK AO2 T01770005
Conditions at: KSAR (SPARTA , IL, US) observed 2115 UTC 20 October 2018
Temperature: 17.7°C (64°F)
Dewpoint: 0.5°C (33°F) [RH = 31%]
Pressure (altimeter): 30.10 inches Hg (1019.4 mb)
Winds: from the NW (320 degrees) at 16 MPH (14 knots; 7.2 m/s)
gusting to 25 MPH (22 knots; 11.3 m/s)
Visibility: 10 or more miles (16+ km)
Ceiling: at least 12,000 feet AGL
Clouds: sky clear below 12,000 feet AGL
Weather: automated observation with no human augmentation;
there may or may not be significant weather present at this time